Time;durP1;ratioP1;P1;durP2;ratioP2;P2;SDS_P1;SDS_P2;PMS_P1;PMS_P2;Temp;Humidity;BMP_temperature;BMP_pressure;BME280_temperature;BME280_humidity;BME280_pressure;Samples;Min_cycle;Max_cycle;Signal;HPM_P1;HPM_P2
2022/11/27 00:04:34;;;;;;;8.13;4.22;;;;;;;;;;10475203;28;20193;-62
2022/11/27 00:09:35;;;;;;;10.10;4.50;;;;;;;;;;10495195;28;20439;-62
2022/11/27 00:14:35;;;;;;;5.47;3.72;;;;;;;;;;10499494;28;20047;-62
2022/11/27 00:19:36;;;;;;;12.50;4.07;;;;;;;;;;10490101;28;20045;-62
2022/11/27 00:24:36;;;;;;;8.00;3.70;;;;;;;;;;10510110;28;20032;-62
2022/11/27 00:29:37;;;;;;;6.88;4.10;;;;;;;;;;10490344;28;20407;-62
2022/11/27 00:34:39;;;;;;;6.40;4.03;;;;;;;;;;10480094;28;20059;-62
2022/11/27 00:39:40;;;;;;;7.95;3.70;;;;;;;;;;10503321;28;20472;-62
2022/11/27 00:44:40;;;;;;;7.68;4.07;;;;;;;;;;10509755;28;20127;-63
2022/11/27 00:49:41;;;;;;;6.63;3.67;;;;;;;;;;10509816;28;20470;-63
2022/11/27 00:54:42;;;;;;;8.40;4.03;;;;;;;;;;10504163;28;20020;-62
2022/11/27 00:59:42;;;;;;;8.77;3.72;;;;;;;;;;10500490;28;20467;-63
2022/11/27 01:04:47;;;;;;;9.90;3.78;;;;;;;;;;10491101;28;20480;-62
2022/11/27 01:09:47;;;;;;;7.43;3.40;;;;;;;;;;10507915;28;20115;-62
2022/11/27 01:14:48;;;;;;;4.53;3.13;;;;;;;;;;10503136;28;20028;-63
2022/11/27 01:19:49;;;;;;;9.10;3.17;;;;;;;;;;10497556;28;20040;-62
2022/11/27 01:24:49;;;;;;;6.40;3.70;;;;;;;;;;10502783;28;20021;-64
2022/11/27 01:29:50;;;;;;;5.05;3.17;;;;;;;;;;10486909;28;20032;-63
2022/11/27 01:34:51;;;;;;;4.57;3.33;;;;;;;;;;10509172;28;20498;-63
2022/11/27 01:39:51;;;;;;;8.30;3.22;;;;;;;;;;10516593;28;20383;-63
2022/11/27 01:44:54;;;;;;;6.70;3.58;;;;;;;;;;10505369;28;20436;-63
2022/11/27 01:50:09;;;;;;;5.60;3.20;;;;;;;;;;10496885;28;20132;-61
2022/11/27 01:55:24;;;;;;;4.82;3.20;;;;;;;;;;10527591;28;20016;-63
2022/11/27 02:00:26;;;;;;;7.55;3.38;;;;;;;;;;10495033;28;20115;-62
2022/11/27 02:05:27;;;;;;;4.13;3.30;;;;;;;;;;10489023;28;20386;-62
2022/11/27 02:10:49;;;;;;;8.43;2.88;;;;;;;;;;10492913;28;20035;-62
2022/11/27 02:16:17;;;;;;;7.82;3.78;;;;;;;;;;10516331;28;20391;-62
2022/11/27 02:21:23;;;;;;;4.43;3.08;;;;;;;;;;10495359;28;20051;-62
2022/11/27 02:26:39;;;;;;;5.15;2.95;;;;;;;;;;10506608;28;20058;-64
2022/11/27 02:32:02;;;;;;;7.50;3.50;;;;;;;;;;10493530;28;20020;-64
2022/11/27 02:37:21;;;;;;;4.57;3.42;;;;;;;;;;10488090;28;20036;-63
2022/11/27 02:42:23;;;;;;;;;;;;;;;;;;10474925;28;20024;-64
2022/11/27 02:47:27;;;;;;;4.60;3.00;;;;;;;;;;10525457;28;19915;-63
2022/11/27 02:52:28;;;;;;;5.63;3.22;;;;;;;;;;10491670;28;20483;-62
2022/11/27 02:57:31;;;;;;;5.82;2.95;;;;;;;;;;10467192;28;20107;-62
2022/11/27 03:02:38;;;;;;;3.97;2.88;;;;;;;;;;10470815;28;20398;-63
2022/11/27 03:08:05;;;;;;;6.57;2.85;;;;;;;;;;10472927;28;20222;-63
2022/11/27 03:13:06;;;;;;;6.07;2.75;;;;;;;;;;10469433;28;20025;-56
2022/11/27 03:18:26;;;;;;;4.22;2.58;;;;;;;;;;10482024;28;20387;-58
2022/11/27 03:23:27;;;;;;;5.30;2.85;;;;;;;;;;10494377;28;20556;-58
2022/11/27 03:28:28;;;;;;;4.25;2.70;;;;;;;;;;10495593;28;20086;-58
2022/11/27 03:33:29;;;;;;;3.92;2.65;;;;;;;;;;10506336;28;20020;-58
2022/11/27 03:38:30;;;;;;;4.13;2.80;;;;;;;;;;10486445;28;20029;-58
2022/11/27 03:43:39;;;;;;;5.82;2.95;;;;;;;;;;10513109;28;20036;-58
2022/11/27 03:48:52;;;;;;;;;;;;;;;;;;10500234;28;20058;-59
2022/11/27 03:54:47;;;;;;;4.32;2.47;;;;;;;;;;10516420;28;19942;-58
2022/11/27 03:59:51;;;;;;;4.53;2.90;;;;;;;;;;10528928;28;20118;-59
2022/11/27 04:04:51;;;;;;;5.00;2.90;;;;;;;;;;10510864;28;20028;-59
2022/11/27 04:09:52;;;;;;;4.43;2.45;;;;;;;;;;10500639;28;20025;-58
2022/11/27 04:14:52;;;;;;;6.05;2.70;;;;;;;;;;10497321;28;20081;-59
2022/11/27 04:19:53;;;;;;;3.05;2.53;;;;;;;;;;10523697;28;20256;-59
2022/11/27 04:24:54;;;;;;;2.70;2.20;;;;;;;;;;10500874;28;20025;-59
2022/11/27 04:29:54;;;;;;;3.58;2.38;;;;;;;;;;10508054;28;20054;-59
2022/11/27 04:34:55;;;;;;;4.72;2.92;;;;;;;;;;10508788;28;20037;-59
2022/11/27 04:39:55;;;;;;;4.38;2.33;;;;;;;;;;10499969;28;20055;-60
2022/11/27 04:44:56;;;;;;;3.40;2.65;;;;;;;;;;10505233;28;20050;-60
2022/11/27 04:49:56;;;;;;;3.15;2.35;;;;;;;;;;10502865;28;20037;-59
2022/11/27 04:54:57;;;;;;;5.03;2.20;;;;;;;;;;10529414;28;20470;-59
2022/11/27 04:59:58;;;;;;;3.38;2.45;;;;;;;;;;10512136;28;20608;-60
2022/11/27 05:04:58;;;;;;;3.83;2.50;;;;;;;;;;10525948;28;20032;-59
2022/11/27 05:09:59;;;;;;;3.97;2.63;;;;;;;;;;10526947;28;20027;-59
2022/11/27 05:14:59;;;;;;;3.38;2.33;;;;;;;;;;10473870;28;20024;-59
2022/11/27 05:20:00;;;;;;;3.22;2.67;;;;;;;;;;10524478;28;20101;-58
2022/11/27 05:25:00;;;;;;;4.28;2.80;;;;;;;;;;10492838;28;20032;-59
2022/11/27 05:30:01;;;;;;;5.43;2.22;;;;;;;;;;10491603;28;20475;-58
2022/11/27 05:35:02;;;;;;;3.50;2.50;;;;;;;;;;10496735;28;20396;-58
2022/11/27 05:40:03;;;;;;;2.78;2.38;;;;;;;;;;10498655;28;20403;-58
2022/11/27 05:45:04;;;;;;;3.22;1.90;;;;;;;;;;10520573;28;20035;-62
2022/11/27 05:50:07;;;;;;;3.83;2.35;;;;;;;;;;10530110;28;20505;-59
2022/11/27 05:55:08;;;;;;;3.38;2.50;;;;;;;;;;10517138;28;20115;-59
2022/11/27 06:00:10;;;;;;;2.25;2.03;;;;;;;;;;10511793;28;20399;-59
2022/11/27 06:05:10;;;;;;;11.52;2.55;;;;;;;;;;10495855;28;20476;-58
2022/11/27 06:10:12;;;;;;;2.42;2.08;;;;;;;;;;10488802;28;20035;-58
2022/11/27 06:15:13;;;;;;;3.85;2.38;;;;;;;;;;10489411;28;20056;-59
2022/11/27 06:20:13;;;;;;;2.92;2.13;;;;;;;;;;10478622;28;20123;-59
2022/11/27 06:25:14;;;;;;;2.30;2.10;;;;;;;;;;10473602;28;20039;-58
2022/11/27 06:30:21;;;;;;;4.20;2.38;;;;;;;;;;10487113;28;20544;-58
2022/11/27 06:35:21;;;;;;;5.28;2.88;;;;;;;;;;10488580;28;20099;-58
2022/11/27 06:40:22;;;;;;;6.45;2.67;;;;;;;;;;10515050;28;20031;-59
2022/11/27 06:45:22;;;;;;;7.03;2.42;;;;;;;;;;10535486;28;20021;-60
2022/11/27 06:50:23;;;;;;;9.43;2.75;;;;;;;;;;10506532;28;20032;-59
2022/11/27 06:55:23;;;;;;;9.48;2.85;;;;;;;;;;10495125;28;20079;-59
2022/11/27 07:00:24;;;;;;;8.55;2.78;;;;;;;;;;10501845;28;20238;-58
2022/11/27 07:05:25;;;;;;;3.10;2.17;;;;;;;;;;10509947;28;20055;-58
2022/11/27 07:10:25;;;;;;;7.30;2.65;;;;;;;;;;10492123;28;20024;-58
2022/11/27 07:15:26;;;;;;;7.13;2.55;;;;;;;;;;10526277;28;20020;-57
2022/11/27 07:20:26;;;;;;;5.65;2.60;;;;;;;;;;10508990;28;20045;-56
2022/11/27 07:25:27;;;;;;;2.92;2.35;;;;;;;;;;10521350;28;20028;-58
2022/11/27 07:30:28;;;;;;;6.57;2.33;;;;;;;;;;10508823;28;20046;-58
2022/11/27 07:35:29;;;;;;;6.53;2.75;;;;;;;;;;10495835;28;20028;-60
2022/11/27 07:40:29;;;;;;;10.30;2.70;;;;;;;;;;10498728;28;20078;-59
2022/11/27 07:45:30;;;;;;;7.47;3.53;;;;;;;;;;10495442;28;20017;-61
2022/11/27 07:50:31;;;;;;;6.13;2.63;;;;;;;;;;10486314;28;20024;-60
2022/11/27 07:55:31;;;;;;;8.80;3.03;;;;;;;;;;10487487;28;20035;-61
2022/11/27 08:00:33;;;;;;;3.85;2.50;;;;;;;;;;10499779;28;20036;-60
2022/11/27 08:05:36;;;;;;;9.73;2.80;;;;;;;;;;10496168;28;20066;-56
2022/11/27 08:10:37;;;;;;;18.77;3.13;;;;;;;;;;10497431;28;20064;-59
2022/11/27 08:15:38;;;;;;;4.80;2.85;;;;;;;;;;10496517;28;20037;-62
2022/11/27 08:20:38;;;;;;;4.75;2.75;;;;;;;;;;10488979;28;20040;-61
2022/11/27 08:25:39;;;;;;;8.40;2.75;;;;;;;;;;10494107;28;20021;-61
2022/11/27 08:30:40;;;;;;;10.65;3.03;;;;;;;;;;10502016;28;20475;-61
2022/11/27 08:35:48;;;;;;;4.32;3.10;;;;;;;;;;10522660;28;20615;-61
2022/11/27 08:41:00;;;;;;;11.45;3.00;;;;;;;;;;10531752;28;20141;-61
2022/11/27 08:46:06;;;;;;;3.80;2.50;;;;;;;;;;10530936;28;20024;-61
2022/11/27 08:51:14;;;;;;;7.93;3.22;;;;;;;;;;10502352;28;20052;-61
2022/11/27 08:56:20;;;;;;;6.82;2.95;;;;;;;;;;10527049;28;20024;-61
2022/11/27 09:01:25;;;;;;;4.65;2.53;;;;;;;;;;10531985;28;20028;-61
2022/11/27 09:06:30;;;;;;;6.70;2.92;;;;;;;;;;10530421;28;20402;-61
2022/11/27 09:11:32;;;;;;;6.50;2.88;;;;;;;;;;10529932;28;20278;-63
2022/11/27 09:16:34;;;;;;;6.15;2.33;;;;;;;;;;10512575;28;20055;-61
2022/11/27 09:21:35;;;;;;;8.73;2.67;;;;;;;;;;10516984;28;20075;-61
2022/11/27 09:26:35;;;;;;;4.60;2.92;;;;;;;;;;10530116;28;20039;-61
2022/11/27 09:31:36;;;;;;;10.98;3.47;;;;;;;;;;10526125;28;20054;-60
2022/11/27 09:36:36;;;;;;;5.88;3.00;;;;;;;;;;10522404;28;20462;-61
2022/11/27 09:41:54;;;;;;;5.20;2.75;;;;;;;;;;10517188;28;20459;-61
2022/11/27 09:46:58;;;;;;;5.55;2.60;;;;;;;;;;10506139;28;20523;-60
2022/11/27 09:52:32;;;;;;;5.40;2.78;;;;;;;;;;10528598;28;20028;-61
2022/11/27 09:57:37;;;;;;;2.88;2.50;;;;;;;;;;10511611;28;20024;-61
2022/11/27 10:02:41;;;;;;;4.47;2.33;;;;;;;;;;10529549;28;20475;-61
2022/11/27 10:08:15;;;;;;;4.25;2.50;;;;;;;;;;10529197;28;20490;-61
2022/11/27 10:13:46;;;;;;;4.03;2.25;;;;;;;;;;10528287;28;20032;-61
2022/11/27 10:19:15;;;;;;;4.93;2.63;;;;;;;;;;10528563;28;20032;-61
2022/11/27 10:24:59;;;;;;;4.03;2.45;;;;;;;;;;10483829;28;20032;-61
2022/11/27 10:30:02;;;;;;;4.40;2.53;;;;;;;;;;10452297;28;20052;-61
2022/11/27 10:35:13;;;;;;;9.40;2.63;;;;;;;;;;10490140;28;20032;-61
2022/11/27 10:40:18;;;;;;;4.75;2.72;;;;;;;;;;10475595;28;20032;-61
2022/11/27 10:45:44;;;;;;;8.45;2.67;;;;;;;;;;10479445;28;20024;-61
2022/11/27 10:50:45;;;;;;;8.93;2.30;;;;;;;;;;10460948;28;20021;-61
2022/11/27 10:56:10;;;;;;;4.68;2.72;;;;;;;;;;10464402;28;20560;-61
2022/11/27 11:01:20;;;;;;;5.13;2.60;;;;;;;;;;10486509;28;20032;-61
2022/11/27 11:06:24;;;;;;;8.90;2.70;;;;;;;;;;10477934;28;20057;-61
2022/11/27 11:11:26;;;;;;;4.25;2.55;;;;;;;;;;10460780;28;20029;-60
2022/11/27 11:16:29;;;;;;;5.05;2.72;;;;;;;;;;10460857;28;20100;-61
2022/11/27 11:21:32;;;;;;;4.95;2.45;;;;;;;;;;10471134;28;20049;-61
2022/11/27 11:26:44;;;;;;;3.60;2.58;;;;;;;;;;10472417;28;20047;-62
2022/11/27 11:31:44;;;;;;;5.10;2.10;;;;;;;;;;10462036;28;20028;-61
2022/11/27 11:37:04;;;;;;;3.65;2.38;;;;;;;;;;10479552;28;20078;-61
2022/11/27 11:42:17;;;;;;;2.53;2.15;;;;;;;;;;10459056;28;20025;-62
2022/11/27 11:47:25;;;;;;;3.58;2.55;;;;;;;;;;10501719;28;20047;-62
2022/11/27 11:52:53;;;;;;;6.73;2.30;;;;;;;;;;10488116;28;20039;-62
2022/11/27 11:58:34;;;;;;;6.13;2.77;;;;;;;;;;10481321;28;20025;-61
2022/11/27 12:04:08;;;;;;;5.57;2.95;;;;;;;;;;10489439;28;20067;-61
2022/11/27 12:09:26;;;;;;;3.35;2.20;;;;;;;;;;10475919;28;20441;-62
2022/11/27 12:14:35;;;;;;;6.38;2.60;;;;;;;;;;10476843;28;20111;-62
2022/11/27 12:20:17;;;;;;;3.65;2.22;;;;;;;;;;10492707;28;20051;-62
2022/11/27 12:25:27;;;;;;;6.13;2.70;;;;;;;;;;10484427;28;20129;-59
2022/11/27 12:30:56;;;;;;;4.05;2.30;;;;;;;;;;10493251;28;20070;-59
2022/11/27 12:36:05;;;;;;;3.28;1.92;;;;;;;;;;10463037;28;20025;-59
2022/11/27 12:41:33;;;;;;;4.72;2.38;;;;;;;;;;10493427;28;20028;-59
2022/11/27 12:46:42;;;;;;;4.65;2.15;;;;;;;;;;10471651;28;20067;-60
2022/11/27 12:51:53;;;;;;;4.03;1.95;;;;;;;;;;10502572;28;20059;-60
2022/11/27 12:56:58;;;;;;;3.78;2.05;;;;;;;;;;10458542;28;20033;-60
2022/11/27 13:02:25;;;;;;;6.55;2.30;;;;;;;;;;10471917;28;20060;-59
2022/11/27 13:08:01;;;;;;;3.53;2.13;;;;;;;;;;10450919;28;20045;-60
2022/11/27 13:13:38;;;;;;;4.72;2.30;;;;;;;;;;10456261;28;20115;-60
2022/11/27 13:18:44;;;;;;;3.50;2.20;;;;;;;;;;10474540;28;20028;-60
2022/11/27 13:23:44;;;;;;;2.35;1.83;;;;;;;;;;10463913;28;20392;-60
2022/11/27 13:28:55;;;;;;;4.10;2.28;;;;;;;;;;10477769;28;20039;-60
2022/11/27 13:34:04;;;;;;;2.95;2.28;;;;;;;;;;10469339;28;20507;-59
2022/11/27 13:39:06;;;;;;;3.80;2.03;;;;;;;;;;10446893;28;20031;-59
2022/11/27 13:44:25;;;;;;;6.35;2.20;;;;;;;;;;10448157;28;20052;-59
2022/11/27 13:49:31;;;;;;;;;;;;;;;;;;10464757;28;20036;-59
2022/11/27 13:54:31;;;;;;;2.63;1.80;;;;;;;;;;10478317;28;19916;-60
2022/11/27 13:59:32;;;;;;;3.13;1.90;;;;;;;;;;10473090;28;20028;-59
2022/11/27 14:04:34;;;;;;;2.33;1.80;;;;;;;;;;10486334;28;20448;-60
2022/11/27 14:09:40;;;;;;;3.90;2.53;;;;;;;;;;10486213;28;20111;-59
2022/11/27 14:14:42;;;;;;;2.22;1.80;;;;;;;;;;10479033;28;20471;-59
2022/11/27 14:19:44;;;;;;;3.67;2.15;;;;;;;;;;10466878;28;20404;-60
2022/11/27 14:24:54;;;;;;;2.78;1.83;;;;;;;;;;10470939;28;20036;-60
2022/11/27 14:29:55;;;;;;;3.33;1.70;;;;;;;;;;10476876;28;20029;-60
2022/11/27 14:34:55;;;;;;;2.15;1.90;;;;;;;;;;10468258;28;20043;-60
2022/11/27 14:39:56;;;;;;;3.70;1.67;;;;;;;;;;10487416;28;20233;-59
2022/11/27 14:45:07;;;;;;;2.78;1.88;;;;;;;;;;10481370;28;20033;-60
2022/11/27 14:50:13;;;;;;;1.98;1.77;;;;;;;;;;10471014;28;20399;-60
2022/11/27 14:55:16;;;;;;;2.67;1.75;;;;;;;;;;10506975;28;20039;-59
2022/11/27 15:00:28;;;;;;;4.22;1.58;;;;;;;;;;10487298;28;20037;-59
2022/11/27 15:05:29;;;;;;;2.67;1.80;;;;;;;;;;10466600;28;20499;-60
2022/11/27 15:10:39;;;;;;;2.33;1.65;;;;;;;;;;10489988;28;20047;-60
2022/11/27 15:15:42;;;;;;;3.13;1.92;;;;;;;;;;10474638;28;20025;-60
2022/11/27 15:20:44;;;;;;;3.53;1.92;;;;;;;;;;10485883;28;20036;-59
2022/11/27 15:26:07;;;;;;;2.80;1.85;;;;;;;;;;10477978;22;20057;-59
2022/11/27 15:31:36;;;;;;;2.88;1.83;;;;;;;;;;10433912;28;20029;-60
2022/11/27 15:36:41;;;;;;;2.70;1.60;;;;;;;;;;10439005;28;20021;-59
2022/11/27 15:41:56;;;;;;;2.08;1.63;;;;;;;;;;10447196;28;20241;-60
2022/11/27 15:47:00;;;;;;;4.78;1.63;;;;;;;;;;10448496;28;20118;-59
2022/11/27 15:52:00;;;;;;;2.50;1.70;;;;;;;;;;10449683;28;20182;-60
2022/11/27 15:57:01;;;;;;;3.13;1.75;;;;;;;;;;10451708;28;20365;-60
2022/11/27 16:02:02;;;;;;;4.90;1.60;;;;;;;;;;10447335;28;20387;-60
2022/11/27 16:07:02;;;;;;;2.85;1.90;;;;;;;;;;10439956;28;20047;-60
2022/11/27 16:12:03;;;;;;;3.28;1.55;;;;;;;;;;10443737;28;20087;-60
2022/11/27 16:22:59;;;;;;;2.20;1.77;;;;;;;;;;10411262;28;20041;-58
2022/11/27 16:28:00;;;;;;;2.80;1.85;;;;;;;;;;10440891;28;20508;-58
2022/11/27 16:33:01;;;;;;;6.28;1.70;;;;;;;;;;10449325;28;20513;-52
2022/11/27 16:38:02;;;;;;;8.07;2.67;;;;;;;;;;10446058;28;20033;-57
2022/11/27 16:43:03;;;;;;;2.20;1.65;;;;;;;;;;10439756;28;20029;-52
2022/11/27 16:48:04;;;;;;;8.10;2.15;;;;;;;;;;10419127;28;20032;-57
2022/11/27 16:53:04;;;;;;;2.25;1.77;;;;;;;;;;10433330;28;20043;-58
2022/11/27 16:58:05;;;;;;;4.07;1.77;;;;;;;;;;10442195;28;20029;-58
2022/11/27 17:03:05;;;;;;;3.50;1.90;;;;;;;;;;10431592;28;20040;-57
2022/11/27 17:08:06;;;;;;;5.88;1.90;;;;;;;;;;10437434;28;20025;-52
2022/11/27 17:13:06;;;;;;;5.20;2.25;;;;;;;;;;10443532;28;20033;-58
2022/11/27 17:18:07;;;;;;;5.55;1.90;;;;;;;;;;10439942;28;20041;-54
2022/11/27 17:23:08;;;;;;;5.20;2.25;;;;;;;;;;10438748;28;20029;-58
2022/11/27 17:28:08;;;;;;;3.17;1.73;;;;;;;;;;10443011;28;20052;-58
2022/11/27 17:33:09;;;;;;;3.17;1.90;;;;;;;;;;10448225;28;20476;-57
2022/11/27 17:38:09;;;;;;;5.45;1.80;;;;;;;;;;10448078;28;20492;-58
2022/11/27 17:43:10;;;;;;;3.03;2.00;;;;;;;;;;10444946;28;20059;-58
2022/11/27 17:48:10;;;;;;;3.08;1.92;;;;;;;;;;10437948;28;20029;-58
2022/11/27 17:53:11;;;;;;;3.78;2.25;;;;;;;;;;10445663;28;20037;-58
2022/11/27 17:58:12;;;;;;;5.47;2.17;;;;;;;;;;10430907;28;20028;-58
2022/11/27 18:03:13;;;;;;;5.63;2.25;;;;;;;;;;10440773;28;20476;-58
2022/11/27 18:08:14;;;;;;;2.58;2.10;;;;;;;;;;10435377;28;20148;-57
2022/11/27 18:13:14;;;;;;;2.95;2.10;;;;;;;;;;10441575;28;20044;-55
2022/11/27 18:18:15;;;;;;;3.28;1.70;;;;;;;;;;10437854;28;20037;-55
2022/11/27 18:23:15;;;;;;;7.13;2.45;;;;;;;;;;10439752;28;20041;-57
2022/11/27 18:28:16;;;;;;;2.50;1.98;;;;;;;;;;10437475;28;20091;-57
2022/11/27 18:33:16;;;;;;;2.97;2.25;;;;;;;;;;10441642;28;20495;-58
2022/11/27 18:38:17;;;;;;;5.00;2.50;;;;;;;;;;10444427;28;20553;-59
2022/11/27 18:43:18;;;;;;;6.28;2.30;;;;;;;;;;10438253;28;20325;-56
2022/11/27 18:48:20;;;;;;;5.88;2.17;;;;;;;;;;10441663;28;20028;-57
2022/11/27 18:53:20;;;;;;;4.88;2.72;;;;;;;;;;10451422;28;20064;-57
2022/11/27 18:58:21;;;;;;;6.07;3.45;;;;;;;;;;10448869;28;20036;-56
2022/11/27 19:03:22;;;;;;;13.93;3.90;;;;;;;;;;10446399;28;20063;-56
2022/11/27 19:08:23;;;;;;;11.07;3.63;;;;;;;;;;10451589;28;20035;-57
2022/11/27 19:13:24;;;;;;;6.65;3.67;;;;;;;;;;10449572;28;20033;-57
2022/11/27 19:18:25;;;;;;;8.18;3.60;;;;;;;;;;10438549;28;20021;-54
2022/11/27 19:23:26;;;;;;;11.02;3.83;;;;;;;;;;10444107;28;20029;-57
2022/11/27 19:28:26;;;;;;;10.13;3.50;;;;;;;;;;10445248;28;20047;-56
2022/11/27 19:33:27;;;;;;;7.95;3.83;;;;;;;;;;10446466;28;20025;-57
2022/11/27 19:38:28;;;;;;;10.57;3.90;;;;;;;;;;10452147;28;20028;-57
2022/11/27 19:43:29;;;;;;;7.68;3.97;;;;;;;;;;10450553;28;20029;-49
2022/11/27 19:48:29;;;;;;;15.30;4.00;;;;;;;;;;10451608;28;20021;-51
2022/11/27 19:53:30;;;;;;;9.90;4.20;;;;;;;;;;10446135;28;20029;-52
2022/11/27 19:58:31;;;;;;;6.95;3.95;;;;;;;;;;10434127;28;20070;-51
2022/11/27 20:03:32;;;;;;;9.85;4.40;;;;;;;;;;10447607;28;20162;-52
2022/11/27 20:08:33;;;;;;;10.52;4.28;;;;;;;;;;10445137;28;20354;-49
2022/11/27 20:13:34;;;;;;;11.10;4.30;;;;;;;;;;10446578;28;20664;-50
2022/11/27 20:18:35;;;;;;;10.82;4.97;;;;;;;;;;10449689;28;20106;-53
2022/11/27 20:23:38;;;;;;;11.70;4.93;;;;;;;;;;10437804;28;20048;-55
2022/11/27 20:28:40;;;;;;;11.85;4.78;;;;;;;;;;10423408;28;20526;-53
2022/11/27 20:33:41;;;;;;;14.02;4.82;;;;;;;;;;10431620;28;20029;-55
2022/11/27 20:38:42;;;;;;;8.90;4.35;;;;;;;;;;10440851;28;20607;-55
2022/11/27 20:43:42;;;;;;;11.10;4.57;;;;;;;;;;10441328;28;20416;-58
2022/11/27 20:48:48;;;;;;;7.93;3.90;;;;;;;;;;10445142;28;20032;-58
2022/11/27 20:53:49;;;;;;;5.47;3.85;;;;;;;;;;10441550;28;20029;-57
2022/11/27 20:58:50;;;;;;;10.98;4.07;;;;;;;;;;10434578;28;20115;-58
2022/11/27 21:03:52;;;;;;;8.07;4.30;;;;;;;;;;10442167;28;20021;-59
2022/11/27 21:08:53;;;;;;;6.85;3.72;;;;;;;;;;10409958;28;20342;-61
2022/11/27 21:14:02;;;;;;;8.15;3.63;;;;;;;;;;10448712;28;20070;-59
2022/11/27 21:19:09;;;;;;;6.75;3.42;;;;;;;;;;10448257;28;20468;-60
2022/11/27 21:24:11;;;;;;;12.00;3.92;;;;;;;;;;10435901;28;20036;-59
2022/11/27 21:29:12;;;;;;;7.05;3.60;;;;;;;;;;10445442;28;20136;-60
2022/11/27 21:34:14;;;;;;;5.40;3.58;;;;;;;;;;10387375;28;20033;-57
2022/11/27 21:39:19;;;;;;;10.98;3.63;;;;;;;;;;10434176;28;20585;-59
2022/11/27 21:44:22;;;;;;;13.32;3.55;;;;;;;;;;10448371;28;20049;-59
2022/11/27 21:49:22;;;;;;;10.00;3.60;;;;;;;;;;10447138;28;20116;-59
2022/11/27 21:54:23;;;;;;;6.80;3.30;;;;;;;;;;10448145;28;20021;-58
2022/11/27 21:59:23;;;;;;;7.28;3.60;;;;;;;;;;10439497;28;20031;-62
2022/11/27 22:04:24;;;;;;;9.27;3.05;;;;;;;;;;10433315;28;20035;-58
2022/11/27 22:09:26;;;;;;;12.52;3.50;;;;;;;;;;10443282;28;20029;-55
2022/11/27 22:14:26;;;;;;;10.05;3.40;;;;;;;;;;10441524;28;20021;-55
2022/11/27 22:19:27;;;;;;;6.05;3.25;;;;;;;;;;10442203;28;20048;-51
2022/11/27 22:24:27;;;;;;;4.55;3.33;;;;;;;;;;10444648;28;20036;-51
2022/11/27 22:29:28;;;;;;;7.28;3.15;;;;;;;;;;10443584;28;20046;-50
2022/11/27 22:34:29;;;;;;;5.22;3.30;;;;;;;;;;10442988;28;20033;-58
2022/11/27 22:39:29;;;;;;;8.00;2.80;;;;;;;;;;10433993;28;20037;-51
2022/11/27 22:44:30;;;;;;;8.07;3.47;;;;;;;;;;10441146;28;20484;-56
2022/11/27 22:49:30;;;;;;;6.45;3.13;;;;;;;;;;10443835;28;20392;-53
2022/11/27 22:54:31;;;;;;;5.35;3.13;;;;;;;;;;10443077;28;20037;-51
2022/11/27 22:59:31;;;;;;;5.15;2.80;;;;;;;;;;10445890;28;20079;-54
2022/11/27 23:04:34;;;;;;;7.30;3.17;;;;;;;;;;10444397;28;20025;-51
2022/11/27 23:09:35;;;;;;;4.75;3.00;;;;;;;;;;10445225;28;20044;-53
2022/11/27 23:14:36;;;;;;;7.32;3.38;;;;;;;;;;10444552;28;20032;-51
2022/11/27 23:19:37;;;;;;;4.22;3.03;;;;;;;;;;10445723;28;20116;-53
2022/11/27 23:24:37;;;;;;;7.07;3.20;;;;;;;;;;10450489;28;20029;-54
2022/11/27 23:29:38;;;;;;;6.68;3.33;;;;;;;;;;10452625;28;20159;-54
2022/11/27 23:34:39;;;;;;;5.05;3.00;;;;;;;;;;10450699;28;20029;-49
2022/11/27 23:39:39;;;;;;;5.97;2.95;;;;;;;;;;10433298;28;20094;-53
2022/11/27 23:44:40;;;;;;;5.28;3.38;;;;;;;;;;10453358;28;20045;-52
2022/11/27 23:49:41;;;;;;;4.95;3.03;;;;;;;;;;10453583;28;20395;-54
2022/11/27 23:54:42;;;;;;;4.88;3.10;;;;;;;;;;10452424;28;20029;-54
2022/11/27 23:59:42;;;;;;;6.25;2.63;;;;;;;;;;10453611;28;20037;-51
